sensor_id;sensor_type;location;lat;lon;timestamp;pressure;altitude;pressure_sealevel;temperature;humidity
141;BME280;65;48.778;9.160;2022-09-20T00:00:05;99040.53;;;8.72;100.00
141;BME280;65;48.778;9.160;2022-09-20T00:02:30;99030.66;;;8.77;100.00
141;BME280;65;48.778;9.160;2022-09-20T00:04:58;99028.81;;;8.79;100.00
141;BME280;65;48.778;9.160;2022-09-20T00:07:23;99030.47;;;8.82;100.00
141;BME280;65;48.778;9.160;2022-09-20T00:09:49;99018.19;;;8.81;100.00
141;BME280;65;48.778;9.160;2022-09-20T00:12:14;99020.72;;;8.84;100.00
141;BME280;65;48.778;9.160;2022-09-20T00:14:40;99017.28;;;8.82;100.00
141;BME280;65;48.778;9.160;2022-09-20T00:17:05;99016.56;;;8.78;100.00
141;BME280;65;48.778;9.160;2022-09-20T00:19:31;99017.59;;;8.74;100.00
141;BME280;65;48.778;9.160;2022-09-20T00:21:56;99020.53;;;8.67;100.00
141;BME280;65;48.778;9.160;2022-09-20T00:24:21;99025.28;;;8.59;100.00
141;BME280;65;48.778;9.160;2022-09-20T00:26:47;99027.50;;;8.47;100.00
141;BME280;65;48.778;9.160;2022-09-20T00:29:12;99023.53;;;8.37;100.00
141;BME280;65;48.778;9.160;2022-09-20T00:31:38;99019.47;;;8.29;100.00
141;BME280;65;48.778;9.160;2022-09-20T00:34:06;99022.53;;;8.18;100.00
141;BME280;65;48.778;9.160;2022-09-20T00:36:51;99033.31;;;8.12;100.00
141;BME280;65;48.778;9.160;2022-09-20T00:39:17;99032.41;;;8.13;100.00
141;BME280;65;48.778;9.160;2022-09-20T00:41:42;99032.34;;;8.14;100.00
141;BME280;65;48.778;9.160;2022-09-20T00:47:42;99024.50;;;8.35;100.00
141;BME280;65;48.778;9.160;2022-09-20T00:52:57;99009.91;;;8.48;100.00
141;BME280;65;48.778;9.160;2022-09-20T00:55:23;99011.69;;;8.47;100.00
141;BME280;65;48.778;9.160;2022-09-20T00:57:50;99017.88;;;8.46;100.00
141;BME280;65;48.778;9.160;2022-09-20T01:00:16;99014.31;;;8.47;100.00
141;BME280;65;48.778;9.160;2022-09-20T01:02:48;99025.00;;;8.44;100.00
141;BME280;65;48.778;9.160;2022-09-20T01:05:16;99019.19;;;8.36;100.00
141;BME280;65;48.778;9.160;2022-09-20T01:07:43;99019.41;;;8.30;100.00
141;BME280;65;48.778;9.160;2022-09-20T01:10:10;99016.91;;;8.27;100.00
141;BME280;65;48.778;9.160;2022-09-20T01:12:37;99013.59;;;8.22;100.00
141;BME280;65;48.778;9.160;2022-09-20T01:15:06;99011.16;;;8.17;100.00
141;BME280;65;48.778;9.160;2022-09-20T01:17:34;99019.16;;;8.14;100.00
141;BME280;65;48.778;9.160;2022-09-20T01:20:08;99019.34;;;8.10;100.00
141;BME280;65;48.778;9.160;2022-09-20T01:25:38;99027.34;;;8.07;100.00
141;BME280;65;48.778;9.160;2022-09-20T01:28:07;99026.44;;;8.08;100.00
141;BME280;65;48.778;9.160;2022-09-20T01:30:44;99031.47;;;8.14;100.00
141;BME280;65;48.778;9.160;2022-09-20T01:38:57;99010.53;;;8.11;100.00
141;BME280;65;48.778;9.160;2022-09-20T01:46:51;99024.09;;;8.00;100.00
141;BME280;65;48.778;9.160;2022-09-20T02:00:06;99015.44;;;8.20;100.00
141;BME280;65;48.778;9.160;2022-09-20T02:05:46;99016.91;;;8.27;100.00
141;BME280;65;48.778;9.160;2022-09-20T02:09:22;99013.00;;;8.37;100.00
141;BME280;65;48.778;9.160;2022-09-20T02:14:58;99010.66;;;8.51;100.00
141;BME280;65;48.778;9.160;2022-09-20T02:17:39;99013.03;;;8.57;100.00
141;BME280;65;48.778;9.160;2022-09-20T02:23:07;99006.56;;;8.65;100.00
141;BME280;65;48.778;9.160;2022-09-20T02:25:52;99012.47;;;8.71;100.00
141;BME280;65;48.778;9.160;2022-09-20T02:31:29;99005.41;;;8.72;100.00
141;BME280;65;48.778;9.160;2022-09-20T02:42:00;99012.00;;;8.82;100.00
141;BME280;65;48.778;9.160;2022-09-20T02:53:22;99009.69;;;8.95;100.00
141;BME280;65;48.778;9.160;2022-09-20T02:59:11;99011.78;;;9.07;99.90
141;BME280;65;48.778;9.160;2022-09-20T03:18:09;99019.34;;;8.32;99.08
141;BME280;65;48.778;9.160;2022-09-20T03:26:06;99027.25;;;8.10;100.00
141;BME280;65;48.778;9.160;2022-09-20T03:28:58;99028.00;;;8.13;100.00
141;BME280;65;48.778;9.160;2022-09-20T03:34:12;99031.56;;;8.34;100.00
141;BME280;65;48.778;9.160;2022-09-20T03:42:19;99022.22;;;8.69;100.00
141;BME280;65;48.778;9.160;2022-09-20T03:50:29;99024.06;;;8.87;100.00
141;BME280;65;48.778;9.160;2022-09-20T03:56:11;99025.84;;;8.87;98.38
141;BME280;65;48.778;9.160;2022-09-20T03:59:21;99035.47;;;8.88;97.97
141;BME280;65;48.778;9.160;2022-09-20T04:04:48;99033.63;;;8.90;97.02
141;BME280;65;48.778;9.160;2022-09-20T04:07:23;99037.84;;;8.94;97.47
141;BME280;65;48.778;9.160;2022-09-20T04:18:57;99036.66;;;9.01;96.60
141;BME280;65;48.778;9.160;2022-09-20T04:21:56;99043.56;;;9.04;96.61
141;BME280;65;48.778;9.160;2022-09-20T04:32:14;99044.53;;;9.22;96.79
141;BME280;65;48.778;9.160;2022-09-20T04:34:50;99051.34;;;9.27;96.69
141;BME280;65;48.778;9.160;2022-09-20T04:37:37;99049.44;;;9.31;97.37
141;BME280;65;48.778;9.160;2022-09-20T04:40:07;99055.50;;;9.33;97.83
141;BME280;65;48.778;9.160;2022-09-20T04:51:43;99064.28;;;8.93;100.00
141;BME280;65;48.778;9.160;2022-09-20T05:00:10;99070.06;;;8.80;100.00
141;BME280;65;48.778;9.160;2022-09-20T05:02:45;99074.72;;;8.74;100.00
141;BME280;65;48.778;9.160;2022-09-20T05:18:47;99075.72;;;8.49;100.00
141;BME280;65;48.778;9.160;2022-09-20T05:40:21;99090.91;;;8.65;100.00
141;BME280;65;48.778;9.160;2022-09-20T05:43:12;99096.16;;;8.65;100.00
141;BME280;65;48.778;9.160;2022-09-20T06:04:25;99109.94;;;9.13;100.00
141;BME280;65;48.778;9.160;2022-09-20T06:07:05;99109.31;;;9.29;100.00
141;BME280;65;48.778;9.160;2022-09-20T06:12:42;99104.16;;;9.46;100.00
141;BME280;65;48.778;9.160;2022-09-20T06:23:23;99111.75;;;9.93;100.00
141;BME280;65;48.778;9.160;2022-09-20T06:25:53;99105.41;;;9.97;99.07
141;BME280;65;48.778;9.160;2022-09-20T06:28:23;99112.19;;;10.02;99.36
141;BME280;65;48.778;9.160;2022-09-20T06:30:52;99111.03;;;10.08;98.57
141;BME280;65;48.778;9.160;2022-09-20T06:33:23;99116.97;;;10.13;98.40
141;BME280;65;48.778;9.160;2022-09-20T06:36:02;99117.81;;;10.13;99.73
141;BME280;65;48.778;9.160;2022-09-20T06:41:55;99123.16;;;9.93;100.00
141;BME280;65;48.778;9.160;2022-09-20T06:44:22;99128.13;;;9.80;100.00
141;BME280;65;48.778;9.160;2022-09-20T06:46:47;99127.41;;;9.77;100.00
141;BME280;65;48.778;9.160;2022-09-20T06:49:12;99130.09;;;9.75;100.00
141;BME280;65;48.778;9.160;2022-09-20T06:51:38;99137.38;;;9.70;100.00
141;BME280;65;48.778;9.160;2022-09-20T06:54:05;99133.75;;;9.73;100.00
141;BME280;65;48.778;9.160;2022-09-20T06:56:35;99136.44;;;9.71;100.00
141;BME280;65;48.778;9.160;2022-09-20T06:59:04;99138.16;;;9.72;100.00
141;BME280;65;48.778;9.160;2022-09-20T07:01:32;99133.69;;;9.74;100.00
141;BME280;65;48.778;9.160;2022-09-20T07:03:58;99128.13;;;9.80;99.13
141;BME280;65;48.778;9.160;2022-09-20T07:06:23;99129.03;;;9.79;99.82
141;BME280;65;48.778;9.160;2022-09-20T07:08:49;99137.28;;;9.92;99.07
141;BME280;65;48.778;9.160;2022-09-20T07:11:15;99145.88;;;9.97;99.96
141;BME280;65;48.778;9.160;2022-09-20T07:13:42;99147.59;;;9.98;98.74
141;BME280;65;48.778;9.160;2022-09-20T07:16:11;99141.22;;;10.02;99.79
141;BME280;65;48.778;9.160;2022-09-20T07:18:37;99145.09;;;10.14;98.52
141;BME280;65;48.778;9.160;2022-09-20T07:21:03;99141.53;;;10.15;96.31
141;BME280;65;48.778;9.160;2022-09-20T07:23:30;99148.19;;;10.24;97.73
141;BME280;65;48.778;9.160;2022-09-20T07:25:56;99157.06;;;10.41;97.88
141;BME280;65;48.778;9.160;2022-09-20T07:28:29;99156.78;;;10.48;95.78
141;BME280;65;48.778;9.160;2022-09-20T07:30:56;99163.50;;;10.55;96.48
141;BME280;65;48.778;9.160;2022-09-20T07:33:21;99158.53;;;10.66;96.99
141;BME280;65;48.778;9.160;2022-09-20T07:35:50;99155.59;;;10.72;95.85
141;BME280;65;48.778;9.160;2022-09-20T07:38:18;99150.09;;;10.76;94.42
141;BME280;65;48.778;9.160;2022-09-20T07:40:43;99154.28;;;10.99;92.90
141;BME280;65;48.778;9.160;2022-09-20T07:43:11;99153.50;;;11.15;91.55
141;BME280;65;48.778;9.160;2022-09-20T07:45:36;99156.84;;;11.53;90.17
141;BME280;65;48.778;9.160;2022-09-20T07:48:06;99160.13;;;11.75;89.89
141;BME280;65;48.778;9.160;2022-09-20T07:50:34;99155.22;;;11.85;85.25
141;BME280;65;48.778;9.160;2022-09-20T07:52:59;99159.91;;;11.62;88.40
141;BME280;65;48.778;9.160;2022-09-20T07:55:25;99161.94;;;11.57;88.89
141;BME280;65;48.778;9.160;2022-09-20T07:57:50;99174.53;;;11.52;89.50
141;BME280;65;48.778;9.160;2022-09-20T08:00:16;99163.16;;;11.67;84.62
141;BME280;65;48.778;9.160;2022-09-20T08:02:42;99167.97;;;11.77;85.78
141;BME280;65;48.778;9.160;2022-09-20T08:05:09;99172.75;;;11.87;81.16
141;BME280;65;48.778;9.160;2022-09-20T08:07:35;99173.00;;;11.83;81.67
141;BME280;65;48.778;9.160;2022-09-20T08:10:01;99172.59;;;11.73;79.13
141;BME280;65;48.778;9.160;2022-09-20T08:12:26;99174.78;;;11.82;77.73
141;BME280;65;48.778;9.160;2022-09-20T08:14:52;99178.44;;;12.13;77.14
141;BME280;65;48.778;9.160;2022-09-20T08:17:18;99181.00;;;12.31;78.72
141;BME280;65;48.778;9.160;2022-09-20T08:19:43;99182.78;;;12.47;77.48
141;BME280;65;48.778;9.160;2022-09-20T08:22:10;99184.06;;;12.55;78.65
141;BME280;65;48.778;9.160;2022-09-20T08:24:37;99180.50;;;12.72;73.15
141;BME280;65;48.778;9.160;2022-09-20T08:27:02;99192.28;;;12.66;74.37
141;BME280;65;48.778;9.160;2022-09-20T08:29:31;99186.41;;;12.77;74.57
141;BME280;65;48.778;9.160;2022-09-20T08:31:56;99189.31;;;12.88;73.05
141;BME280;65;48.778;9.160;2022-09-20T08:34:24;99187.06;;;12.65;75.73
141;BME280;65;48.778;9.160;2022-09-20T08:36:49;99188.00;;;12.64;72.82
141;BME280;65;48.778;9.160;2022-09-20T08:39:18;99187.84;;;12.51;74.59
141;BME280;65;48.778;9.160;2022-09-20T08:41:47;99190.94;;;12.91;75.58
141;BME280;65;48.778;9.160;2022-09-20T08:44:23;99187.59;;;15.19;62.63
141;BME280;65;48.778;9.160;2022-09-20T08:47:24;99181.94;;;16.91;59.05
141;BME280;65;48.778;9.160;2022-09-20T08:49:50;99173.06;;;16.03;57.52
141;BME280;65;48.778;9.160;2022-09-20T08:52:23;99177.63;;;16.39;57.23
141;BME280;65;48.778;9.160;2022-09-20T08:54:53;99176.59;;;16.03;58.30
141;BME280;65;48.778;9.160;2022-09-20T08:57:20;99174.03;;;15.49;59.63
141;BME280;65;48.778;9.160;2022-09-20T08:59:46;99181.03;;;15.38;60.55
141;BME280;65;48.778;9.160;2022-09-20T09:02:18;99177.16;;;15.16;61.46
141;BME280;65;48.778;9.160;2022-09-20T09:04:44;99176.28;;;15.16;60.01
141;BME280;65;48.778;9.160;2022-09-20T09:07:16;99176.81;;;14.67;60.04
141;BME280;65;48.778;9.160;2022-09-20T09:09:45;99178.75;;;14.51;63.73
141;BME280;65;48.778;9.160;2022-09-20T09:12:16;99181.75;;;14.59;63.65
141;BME280;65;48.778;9.160;2022-09-20T09:14:43;99177.56;;;14.69;61.05
141;BME280;65;48.778;9.160;2022-09-20T09:17:26;99167.31;;;14.63;59.18
141;BME280;65;48.778;9.160;2022-09-20T09:20:16;99170.34;;;14.14;60.90
141;BME280;65;48.778;9.160;2022-09-20T09:23:25;99176.91;;;13.50;64.80
141;BME280;65;48.778;9.160;2022-09-20T09:25:52;99174.72;;;13.27;66.63
141;BME280;65;48.778;9.160;2022-09-20T09:28:23;99181.16;;;13.07;70.39
141;BME280;65;48.778;9.160;2022-09-20T09:30:49;99182.38;;;13.02;71.60
141;BME280;65;48.778;9.160;2022-09-20T09:33:25;99174.63;;;13.28;69.71
141;BME280;65;48.778;9.160;2022-09-20T09:35:57;99166.72;;;13.87;66.95
141;BME280;65;48.778;9.160;2022-09-20T09:38:26;99165.72;;;14.46;65.41
141;BME280;65;48.778;9.160;2022-09-20T09:40:56;99167.31;;;14.63;63.53
141;BME280;65;48.778;9.160;2022-09-20T09:43:24;99161.78;;;14.38;64.61
141;BME280;65;48.778;9.160;2022-09-20T09:45:54;99162.84;;;14.35;64.38
141;BME280;65;48.778;9.160;2022-09-20T09:48:28;99158.00;;;14.13;62.62
141;BME280;65;48.778;9.160;2022-09-20T09:51:14;99170.16;;;13.89;64.73
141;BME280;65;48.778;9.160;2022-09-20T09:53:41;99164.59;;;13.64;66.78
141;BME280;65;48.778;9.160;2022-09-20T10:05:05;99174.00;;;13.69;66.97
141;BME280;65;48.778;9.160;2022-09-20T10:11:06;99168.44;;;15.00;58.92
141;BME280;65;48.778;9.160;2022-09-20T10:16:48;99164.28;;;15.23;61.06
141;BME280;65;48.778;9.160;2022-09-20T10:33:46;99162.06;;;15.30;59.77
141;BME280;65;48.778;9.160;2022-09-20T10:37:06;99165.06;;;15.90;57.92
141;BME280;65;48.778;9.160;2022-09-20T10:42:03;99149.78;;;16.43;54.83
141;BME280;65;48.778;9.160;2022-09-20T10:50:39;99157.81;;;15.67;53.79
141;BME280;65;48.778;9.160;2022-09-20T10:56:02;99162.66;;;15.21;52.85
141;BME280;65;48.778;9.160;2022-09-20T10:58:48;99159.28;;;15.31;54.76
141;BME280;65;48.778;9.160;2022-09-20T11:01:41;99154.28;;;15.00;56.00
141;BME280;65;48.778;9.160;2022-09-20T11:07:16;99167.66;;;15.12;52.87
141;BME280;65;48.778;9.160;2022-09-20T11:09:48;99161.66;;;15.36;54.81
141;BME280;65;48.778;9.160;2022-09-20T11:12:39;99161.53;;;15.90;52.05
141;BME280;65;48.778;9.160;2022-09-20T11:26:51;99143.28;;;28.36;28.73
141;BME280;65;48.778;9.160;2022-09-20T11:29:25;99143.31;;;26.51;29.33
141;BME280;65;48.778;9.160;2022-09-20T11:31:55;99137.03;;;23.76;31.46
141;BME280;65;48.778;9.160;2022-09-20T11:34:27;99148.47;;;20.90;38.38
141;BME280;65;48.778;9.160;2022-09-20T11:36:59;99152.38;;;20.36;39.28
141;BME280;65;48.778;9.160;2022-09-20T11:41:54;99150.31;;;19.98;40.50
141;BME280;65;48.778;9.160;2022-09-20T11:44:20;99149.31;;;20.90;36.79
141;BME280;65;48.778;9.160;2022-09-20T11:46:51;99157.00;;;19.82;39.68
141;BME280;65;48.778;9.160;2022-09-20T11:49:22;99150.38;;;17.79;44.24
141;BME280;65;48.778;9.160;2022-09-20T11:57:26;99153.97;;;16.34;51.07
141;BME280;65;48.778;9.160;2022-09-20T11:59:58;99149.72;;;17.05;46.13
141;BME280;65;48.778;9.160;2022-09-20T12:02:57;99141.44;;;17.32;47.67
141;BME280;65;48.778;9.160;2022-09-20T12:05:36;99139.97;;;17.63;48.95
141;BME280;65;48.778;9.160;2022-09-20T12:08:05;99138.38;;;18.40;45.79
141;BME280;65;48.778;9.160;2022-09-20T12:10:38;99135.25;;;20.37;39.54
141;BME280;65;48.778;9.160;2022-09-20T12:13:18;99121.28;;;22.46;34.42
141;BME280;65;48.778;9.160;2022-09-20T12:16:08;99120.50;;;21.60;34.84
141;BME280;65;48.778;9.160;2022-09-20T12:18:59;99120.66;;;24.04;29.68
141;BME280;65;48.778;9.160;2022-09-20T12:24:33;99115.31;;;25.54;27.45
141;BME280;65;48.778;9.160;2022-09-20T12:30:04;99103.41;;;25.07;26.83
141;BME280;65;48.778;9.160;2022-09-20T12:34:58;99104.63;;;24.70;28.83
141;BME280;65;48.778;9.160;2022-09-20T12:37:25;99096.16;;;25.07;28.70
141;BME280;65;48.778;9.160;2022-09-20T12:39:54;99100.06;;;25.21;30.96
141;BME280;65;48.778;9.160;2022-09-20T12:42:27;99100.59;;;25.73;28.57
141;BME280;65;48.778;9.160;2022-09-20T12:45:05;99102.34;;;26.30;28.03
141;BME280;65;48.778;9.160;2022-09-20T12:47:51;99109.41;;;24.84;32.55
141;BME280;65;48.778;9.160;2022-09-20T12:50:20;99092.97;;;25.77;27.94
141;BME280;65;48.778;9.160;2022-09-20T12:53:12;99105.25;;;24.56;30.53
141;BME280;65;48.778;9.160;2022-09-20T12:55:40;99104.38;;;24.21;29.32
141;BME280;65;48.778;9.160;2022-09-20T13:03:32;99096.94;;;22.65;30.99
141;BME280;65;48.778;9.160;2022-09-20T13:11:00;99097.25;;;23.43;28.29
141;BME280;65;48.778;9.160;2022-09-20T13:13:56;99098.75;;;23.81;29.40
141;BME280;65;48.778;9.160;2022-09-20T13:19:20;99094.09;;;22.66;30.07
141;BME280;65;48.778;9.160;2022-09-20T13:22:11;99100.69;;;21.61;34.25
141;BME280;65;48.778;9.160;2022-09-20T13:24:44;99099.13;;;21.20;34.43
141;BME280;65;48.778;9.160;2022-09-20T13:27:14;99100.03;;;20.00;36.70
141;BME280;65;48.778;9.160;2022-09-20T13:29:43;99100.19;;;19.04;40.69
141;BME280;65;48.778;9.160;2022-09-20T13:34:40;99104.09;;;18.23;41.95
141;BME280;65;48.778;9.160;2022-09-20T13:37:24;99102.16;;;17.45;44.80
141;BME280;65;48.778;9.160;2022-09-20T13:39:53;99101.53;;;17.06;43.29
141;BME280;65;48.778;9.160;2022-09-20T13:42:19;99100.06;;;16.79;44.30
141;BME280;65;48.778;9.160;2022-09-20T13:44:46;99099.66;;;16.59;49.01
141;BME280;65;48.778;9.160;2022-09-20T13:47:27;99100.72;;;16.69;46.27
141;BME280;65;48.778;9.160;2022-09-20T13:50:06;99096.94;;;16.85;46.45
141;BME280;65;48.778;9.160;2022-09-20T13:52:46;99109.03;;;16.78;45.08
141;BME280;65;48.778;9.160;2022-09-20T13:55:30;99110.97;;;16.63;47.20
141;BME280;65;48.778;9.160;2022-09-20T13:58:06;99107.34;;;16.27;48.08
141;BME280;65;48.778;9.160;2022-09-20T14:00:34;99114.53;;;15.89;49.62
141;BME280;65;48.778;9.160;2022-09-20T14:03:02;99115.81;;;15.70;50.37
141;BME280;65;48.778;9.160;2022-09-20T14:05:29;99119.13;;;15.34;51.76
141;BME280;65;48.778;9.160;2022-09-20T14:07:57;99114.19;;;14.88;52.96
141;BME280;65;48.778;9.160;2022-09-20T14:10:33;99123.59;;;14.67;54.94
141;BME280;65;48.778;9.160;2022-09-20T14:13:03;99130.47;;;14.43;56.08
141;BME280;65;48.778;9.160;2022-09-20T14:15:42;99124.00;;;14.33;57.20
141;BME280;65;48.778;9.160;2022-09-20T14:18:16;99134.19;;;14.12;57.64
141;BME280;65;48.778;9.160;2022-09-20T14:20:43;99124.13;;;14.03;54.85
141;BME280;65;48.778;9.160;2022-09-20T14:23:29;99128.78;;;13.99;56.79
141;BME280;65;48.778;9.160;2022-09-20T14:28:44;99134.09;;;13.99;57.14
141;BME280;65;48.778;9.160;2022-09-20T14:33:49;99136.63;;;13.86;58.30
141;BME280;65;48.778;9.160;2022-09-20T14:36:19;99126.19;;;13.83;57.01
141;BME280;65;48.778;9.160;2022-09-20T14:38:52;99115.31;;;13.88;56.55
141;BME280;65;48.778;9.160;2022-09-20T14:41:27;99117.50;;;13.96;54.78
141;BME280;65;48.778;9.160;2022-09-20T14:43:58;99123.34;;;13.86;56.65
141;BME280;65;48.778;9.160;2022-09-20T14:46:33;99117.88;;;13.89;56.57
141;BME280;65;48.778;9.160;2022-09-20T14:49:31;99114.16;;;13.92;53.88
141;BME280;65;48.778;9.160;2022-09-20T14:55:01;99108.75;;;13.93;53.60
141;BME280;65;48.778;9.160;2022-09-20T14:57:28;99108.28;;;14.01;52.89
141;BME280;65;48.778;9.160;2022-09-20T14:59:54;99110.38;;;13.96;55.08
141;BME280;65;48.778;9.160;2022-09-20T15:02:23;99112.38;;;13.92;56.09
141;BME280;65;48.778;9.160;2022-09-20T15:04:54;99126.13;;;14.13;55.90
141;BME280;65;48.778;9.160;2022-09-20T15:07:23;99117.44;;;14.38;54.03
141;BME280;65;48.778;9.160;2022-09-20T15:09:57;99123.50;;;14.69;53.96
141;BME280;65;48.778;9.160;2022-09-20T15:12:23;99116.16;;;14.99;52.09
141;BME280;65;48.778;9.160;2022-09-20T15:14:49;99112.94;;;15.21;54.40
141;BME280;65;48.778;9.160;2022-09-20T15:17:19;99117.41;;;15.33;50.71
141;BME280;65;48.778;9.160;2022-09-20T15:19:46;99112.19;;;15.84;47.84
141;BME280;65;48.778;9.160;2022-09-20T15:22:12;99109.38;;;16.60;46.19
141;BME280;65;48.778;9.160;2022-09-20T15:24:38;99109.50;;;16.95;46.51
141;BME280;65;48.778;9.160;2022-09-20T15:27:04;99114.72;;;16.97;45.94
141;BME280;65;48.778;9.160;2022-09-20T15:29:29;99109.97;;;16.40;44.18
141;BME280;65;48.778;9.160;2022-09-20T15:31:55;99103.41;;;15.95;44.58
141;BME280;65;48.778;9.160;2022-09-20T15:34:21;99109.38;;;15.60;45.68
141;BME280;65;48.778;9.160;2022-09-20T15:36:47;99102.78;;;15.13;46.21
141;BME280;65;48.778;9.160;2022-09-20T15:39:13;99109.38;;;14.81;48.03
141;BME280;65;48.778;9.160;2022-09-20T15:41:39;99108.78;;;14.63;47.79
141;BME280;65;48.778;9.160;2022-09-20T15:44:05;99100.03;;;14.61;49.79
141;BME280;65;48.778;9.160;2022-09-20T15:46:31;99106.63;;;14.55;50.23
141;BME280;65;48.778;9.160;2022-09-20T15:48:58;99106.22;;;14.33;48.94
141;BME280;65;48.778;9.160;2022-09-20T15:51:25;99110.72;;;14.18;51.07
141;BME280;65;48.778;9.160;2022-09-20T15:53:55;99112.78;;;14.28;50.92
141;BME280;65;48.778;9.160;2022-09-20T15:56:26;99102.75;;;14.18;50.68
141;BME280;65;48.778;9.160;2022-09-20T15:59:00;99106.94;;;14.08;50.62
141;BME280;65;48.778;9.160;2022-09-20T16:01:33;99109.22;;;14.00;52.06
141;BME280;65;48.778;9.160;2022-09-20T16:06:31;99102.84;;;13.74;52.90
141;BME280;65;48.778;9.160;2022-09-20T16:08:56;99114.88;;;13.66;53.96
141;BME280;65;48.778;9.160;2022-09-20T16:11:22;99109.00;;;13.60;52.12
141;BME280;65;48.778;9.160;2022-09-20T16:13:55;99115.63;;;13.53;53.29
141;BME280;65;48.778;9.160;2022-09-20T16:16:20;99111.56;;;13.48;53.04
141;BME280;65;48.778;9.160;2022-09-20T16:18:46;99111.28;;;13.52;52.92
141;BME280;65;48.778;9.160;2022-09-20T16:21:30;99112.09;;;13.39;52.41
141;BME280;65;48.778;9.160;2022-09-20T16:23:56;99126.34;;;13.22;54.22
141;BME280;65;48.778;9.160;2022-09-20T16:26:24;99119.25;;;13.07;53.46
141;BME280;65;48.778;9.160;2022-09-20T16:28:50;99116.19;;;12.98;54.01
141;BME280;65;48.778;9.160;2022-09-20T16:31:38;99126.25;;;12.78;55.76
141;BME280;65;48.778;9.160;2022-09-20T16:36:50;99133.28;;;12.31;59.87
141;BME280;65;48.778;9.160;2022-09-20T16:39:18;99131.28;;;12.19;60.27
141;BME280;65;48.778;9.160;2022-09-20T16:41:46;99136.88;;;12.30;58.43
141;BME280;65;48.778;9.160;2022-09-20T16:44:13;99138.75;;;12.28;60.05
141;BME280;65;48.778;9.160;2022-09-20T16:46:39;99140.78;;;12.23;59.56
141;BME280;65;48.778;9.160;2022-09-20T16:49:07;99141.66;;;12.24;60.19
141;BME280;65;48.778;9.160;2022-09-20T16:51:35;99146.09;;;12.23;60.37
141;BME280;65;48.778;9.160;2022-09-20T16:54:03;99143.19;;;12.28;60.31
141;BME280;65;48.778;9.160;2022-09-20T16:56:31;99142.84;;;12.18;60.89
141;BME280;65;48.778;9.160;2022-09-20T16:59:01;99150.00;;;12.16;62.29
141;BME280;65;48.778;9.160;2022-09-20T17:01:27;99140.03;;;12.21;60.89
141;BME280;65;48.778;9.160;2022-09-20T17:03:53;99150.28;;;12.27;60.04
141;BME280;65;48.778;9.160;2022-09-20T17:06:19;99147.47;;;12.30;60.41
141;BME280;65;48.778;9.160;2022-09-20T17:08:44;99154.81;;;12.25;61.83
141;BME280;65;48.778;9.160;2022-09-20T17:11:19;99156.78;;;12.22;61.72
141;BME280;65;48.778;9.160;2022-09-20T17:13:46;99146.94;;;12.24;61.78
141;BME280;65;48.778;9.160;2022-09-20T17:16:14;99150.78;;;12.18;63.71
141;BME280;65;48.778;9.160;2022-09-20T17:18:40;99162.03;;;12.06;63.81
141;BME280;65;48.778;9.160;2022-09-20T17:21:15;99161.00;;;12.09;63.21
141;BME280;65;48.778;9.160;2022-09-20T17:23:52;99169.44;;;12.17;63.13
141;BME280;65;48.778;9.160;2022-09-20T17:26:26;99169.97;;;12.06;64.30
141;BME280;65;48.778;9.160;2022-09-20T17:28:53;99171.06;;;12.02;65.15
141;BME280;65;48.778;9.160;2022-09-20T17:31:23;99172.25;;;11.96;65.31
141;BME280;65;48.778;9.160;2022-09-20T17:33:56;99175.72;;;11.81;65.67
141;BME280;65;48.778;9.160;2022-09-20T17:36:29;99173.44;;;11.73;66.55
141;BME280;65;48.778;9.160;2022-09-20T17:38:56;99184.34;;;11.67;67.09
141;BME280;65;48.778;9.160;2022-09-20T17:41:23;99180.22;;;11.62;67.42
141;BME280;65;48.778;9.160;2022-09-20T17:43:57;99184.91;;;11.57;67.57
141;BME280;65;48.778;9.160;2022-09-20T17:46:29;99188.00;;;11.48;67.95
141;BME280;65;48.778;9.160;2022-09-20T17:48:59;99194.53;;;11.40;68.81
141;BME280;65;48.778;9.160;2022-09-20T17:51:30;99194.78;;;11.36;69.04
141;BME280;65;48.778;9.160;2022-09-20T17:53:57;99189.63;;;11.33;70.52
141;BME280;65;48.778;9.160;2022-09-20T17:56:23;99197.72;;;11.30;70.28
141;BME280;65;48.778;9.160;2022-09-20T17:58:53;99197.81;;;11.28;70.21
141;BME280;65;48.778;9.160;2022-09-20T18:01:19;99195.47;;;11.22;70.14
141;BME280;65;48.778;9.160;2022-09-20T18:03:46;99192.19;;;11.17;70.64
141;BME280;65;48.778;9.160;2022-09-20T18:06:26;99197.78;;;11.11;71.01
141;BME280;65;48.778;9.160;2022-09-20T18:08:53;99212.03;;;11.08;70.83
141;BME280;65;48.778;9.160;2022-09-20T18:11:25;99215.81;;;11.03;72.11
141;BME280;65;48.778;9.160;2022-09-20T18:13:51;99215.22;;;10.96;72.68
141;BME280;65;48.778;9.160;2022-09-20T18:16:16;99214.59;;;10.91;73.36
141;BME280;65;48.778;9.160;2022-09-20T18:18:43;99217.63;;;10.84;73.65
141;BME280;65;48.778;9.160;2022-09-20T18:23:34;99226.56;;;10.62;75.14
141;BME280;65;48.778;9.160;2022-09-20T18:26:05;99231.13;;;10.59;76.53
141;BME280;65;48.778;9.160;2022-09-20T18:31:17;99228.50;;;10.59;79.08
141;BME280;65;48.778;9.160;2022-09-20T18:33:43;99228.00;;;10.51;78.72
141;BME280;65;48.778;9.160;2022-09-20T18:36:09;99238.94;;;10.43;77.93
141;BME280;65;48.778;9.160;2022-09-20T18:38:35;99240.97;;;10.36;79.72
141;BME280;65;48.778;9.160;2022-09-20T18:41:01;99240.44;;;10.28;80.05
141;BME280;65;48.778;9.160;2022-09-20T18:43:31;99244.28;;;10.21;80.90
141;BME280;65;48.778;9.160;2022-09-20T18:45:59;99241.09;;;10.13;81.24
141;BME280;65;48.778;9.160;2022-09-20T18:48:25;99243.22;;;10.05;81.50
141;BME280;65;48.778;9.160;2022-09-20T18:51:00;99250.78;;;9.94;80.98
141;BME280;65;48.778;9.160;2022-09-20T18:53:31;99250.31;;;9.84;81.55
141;BME280;65;48.778;9.160;2022-09-20T18:58:59;99254.03;;;9.78;82.37
141;BME280;65;48.778;9.160;2022-09-20T19:06:42;99272.59;;;9.57;84.19
141;BME280;65;48.778;9.160;2022-09-20T19:09:29;99276.06;;;9.57;85.07
141;BME280;65;48.778;9.160;2022-09-20T19:18:26;99289.22;;;9.59;84.74
141;BME280;65;48.778;9.160;2022-09-20T19:26:30;99295.44;;;10.19;82.68
141;BME280;65;48.778;9.160;2022-09-20T19:28:58;99299.16;;;10.35;81.87
141;BME280;65;48.778;9.160;2022-09-20T19:31:28;99298.06;;;10.40;82.10
141;BME280;65;48.778;9.160;2022-09-20T19:33:56;99311.00;;;10.47;81.18
141;BME280;65;48.778;9.160;2022-09-20T19:36:35;99306.88;;;10.39;81.97
141;BME280;65;48.778;9.160;2022-09-20T19:46:45;99311.91;;;10.05;84.03
141;BME280;65;48.778;9.160;2022-09-20T19:49:29;99314.16;;;9.94;86.27
141;BME280;65;48.778;9.160;2022-09-20T19:51:56;99317.28;;;9.81;85.11
141;BME280;65;48.778;9.160;2022-09-20T19:54:22;99315.75;;;9.76;86.98
141;BME280;65;48.778;9.160;2022-09-20T19:56:57;99313.56;;;9.65;85.77